Semipalatinsk Airport
UASS : now visible

Airfield :











YOU CAN JOIN US ON...

 
LOGIN :

Register | Disclaimer

   EN    FR    IT 

 









Legend :    VFR   Marginal VFR   IFR   Intensive IFR   Very Intensive IFR
Visi :
Ceiling :
>= 8 km
>= 3000ft
5 to 8 km
1000 to 3000 ft
1500m to 5 km
500 to 1000 ft
800 to 1500m
200 to 500 ft
< 800m
< 200 ft
Symbols :   Thunderstorms  Fog  Heavy snow  Heavy precipitations  Wind > 20 kt






- Airport Elevation : 761 ft
- IATA code : DLX


UASS - Semipalatinsk

EXPIRED METARs :
  • 281530Z 19016MPS 1400 R26/P2000N BLSN SCT041 M03/M05 Q1012 R26/82//50 NOSIG RMK QFE740/0987
  • 281500Z 19017MPS 0900 R26/P2000D SN BLSN SCT043 M04/M05 Q1012 R26/82//50 NOSIG RMK QFE741/0988
  • 281430Z 19018MPS 0550 R26/1500N BLSN NSC M04/M05 Q1012 R26/82//50 NOSIG RMK QFE741/0988

TAF TAF UASS
Valid from the 28 at 15:00 until the 29 at 00:00 UTC


281401Z 2815/2824 18016G21MPS 1000 BLSN BKN020 OVC030
TEMPO 2815/2821 21019G24MPS 0200 +SHSN BLSN BKN020CB



MET'MAP, your aeronautical weather chart ! - Copyright ORBIFLY December 2007 - Disclaimer

ORBIFLY MET'MAP TEAM :

Programming & Development : Alexandra Zaïnal
Concept & original design : Baudouin d'Aumeries
Assistance for programming : Marc-Olivier Méhu
Technical & hardware support : Manuel Goepfert

Contact : metmap@orbifly.com




SOURCES & CREDITS :

   NOAA       Earth
Advisory